createdAt,value
2018-02-20T00:02:13.357Z,28.17
2018-02-20T00:04:40.918Z,29.60
2018-02-20T00:07:08.500Z,28.37
2018-02-20T00:09:36.070Z,29.13
2018-02-20T00:12:03.669Z,28.40
2018-02-20T00:14:31.244Z,26.77
2018-02-20T00:16:58.838Z,26.53
2018-02-20T00:19:26.405Z,25.43
2018-02-20T00:21:53.993Z,30.97
2018-02-20T00:24:22.322Z,28.67
2018-02-20T00:26:49.904Z,27.10
2018-02-20T00:29:17.465Z,29.40
2018-02-20T00:31:45.069Z,27.80
2018-02-20T00:34:12.638Z,28.27
2018-02-20T00:36:40.229Z,28.00
2018-02-20T00:39:07.802Z,28.30
2018-02-20T00:41:35.397Z,28.90
2018-02-20T00:44:02.962Z,28.57
2018-02-20T00:46:30.549Z,31.40
2018-02-20T00:48:58.121Z,29.33
2018-02-20T00:51:25.709Z,28.50
2018-02-20T00:53:53.302Z,28.17
2018-02-20T00:56:21.089Z,28.90
2018-02-20T00:58:48.664Z,31.27
2018-02-20T01:01:16.263Z,27.70
2018-02-20T01:03:43.833Z,29.50
2018-02-20T01:06:12.188Z,28.60
2018-02-20T01:08:39.757Z,28.30
2018-02-20T01:11:07.661Z,29.63
2018-02-20T01:13:35.223Z,29.90
2018-02-20T01:16:02.969Z,29.37
2018-02-20T01:18:30.539Z,26.90
2018-02-20T01:20:58.131Z,29.30
2018-02-20T01:23:25.700Z,27.50
2018-02-20T01:25:53.295Z,30.10
2018-02-20T01:28:21.624Z,28.80
2018-02-20T01:30:49.981Z,29.80
2018-02-20T01:33:17.541Z,31.27
2018-02-20T01:35:45.130Z,32.67
2018-02-20T01:38:12.689Z,27.90
2018-02-20T01:40:40.260Z,31.13
2018-02-20T01:43:07.853Z,29.43
2018-02-20T01:45:35.425Z,29.90
2018-02-20T01:48:03.018Z,30.47
2018-02-20T01:50:30.580Z,29.50
2018-02-20T01:52:58.178Z,30.27
2018-02-20T01:55:26.510Z,31.20
2018-02-20T01:57:54.105Z,27.73
2018-02-20T02:00:21.677Z,29.60
2018-02-20T02:02:50.036Z,31.50
2018-02-20T02:05:17.610Z,28.77
2018-02-20T02:07:45.976Z,30.60
2018-02-20T02:10:14.304Z,30.17
2018-02-20T02:12:41.894Z,28.17
2018-02-20T02:15:09.474Z,29.53
2018-02-20T02:17:37.070Z,28.50
2018-02-20T02:20:04.638Z,28.73
2018-02-20T02:22:32.230Z,30.63
2018-02-20T02:24:59.796Z,30.17
2018-02-20T02:27:27.377Z,29.50
2018-02-20T02:29:54.938Z,30.20
2018-02-20T02:32:23.298Z,28.50
2018-02-20T02:34:51.633Z,28.83
2018-02-20T02:37:19.233Z,31.17
2018-02-20T02:39:46.796Z,30.10
2018-02-20T02:42:14.383Z,32.50
2018-02-20T02:44:41.954Z,30.70
2018-02-20T02:47:09.541Z,31.77
2018-02-20T02:49:37.100Z,29.00
2018-02-20T02:52:04.699Z,28.60
2018-02-20T02:54:32.275Z,30.97
2018-02-20T02:56:59.860Z,30.57
2018-02-20T02:59:27.432Z,29.00
2018-02-20T03:01:55.030Z,28.37
2018-02-20T03:04:22.603Z,29.00
2018-02-20T03:06:50.192Z,31.30
2018-02-20T03:09:17.761Z,29.07
2018-02-20T03:11:45.336Z,26.60
2018-02-20T03:14:12.938Z,27.90
2018-02-20T03:16:40.501Z,30.13
2018-02-20T03:19:08.858Z,27.70
2018-02-20T03:21:36.439Z,27.60
2018-02-20T03:24:04.025Z,28.37
2018-02-20T03:26:31.588Z,27.83
2018-02-20T03:28:59.187Z,28.80
2018-02-20T03:31:26.753Z,28.33
2018-02-20T03:33:55.109Z,29.80
2018-02-20T03:36:22.673Z,27.87
2018-02-20T03:38:50.260Z,30.33
2018-02-20T03:41:17.839Z,30.57
2018-02-20T03:43:45.420Z,28.93
2018-02-20T03:46:12.988Z,28.93
2018-02-20T03:48:40.581Z,30.10
2018-02-20T03:51:08.149Z,28.33
2018-02-20T03:53:35.741Z,28.10
2018-02-20T03:56:03.333Z,26.33
2018-02-20T03:58:30.975Z,27.17
2018-02-20T04:00:58.546Z,26.50
2018-02-20T04:03:26.145Z,26.57
2018-02-20T04:05:53.713Z,25.10
2018-02-20T04:08:22.066Z,27.40
2018-02-20T04:10:49.632Z,27.17
2018-02-20T04:13:17.225Z,24.30
2018-02-20T04:15:44.789Z,26.40
2018-02-20T04:18:12.378Z,27.13
2018-02-20T04:20:40.705Z,27.07
2018-02-20T04:23:08.294Z,26.63
2018-02-20T04:25:35.866Z,26.33
2018-02-20T04:28:03.457Z,28.40
2018-02-20T04:30:31.025Z,28.40
2018-02-20T04:32:58.622Z,28.70
2018-02-20T04:35:26.186Z,29.80
2018-02-20T04:37:53.778Z,30.03
2018-02-20T04:40:21.353Z,29.10
2018-02-20T04:42:48.921Z,28.00
2018-02-20T04:45:17.272Z,27.90
2018-02-20T04:47:44.841Z,29.30
2018-02-20T04:50:12.431Z,42.57
2018-02-20T04:52:39.992Z,38.30
2018-02-20T04:55:08.355Z,40.90
2018-02-20T04:57:36.684Z,34.63
2018-02-20T05:00:04.267Z,33.67
2018-02-20T05:02:31.834Z,34.87
2018-02-20T05:04:59.434Z,32.47
2018-02-20T05:07:26.997Z,29.60
2018-02-20T05:09:54.590Z,29.50
2018-02-20T05:12:22.156Z,31.17
2018-02-20T05:14:49.756Z,29.10
2018-02-20T05:17:17.320Z,31.17
2018-02-20T05:19:46.382Z,29.93
2018-02-20T05:22:13.955Z,29.00
2018-02-20T05:24:41.550Z,30.67
2018-02-20T05:27:09.126Z,29.23
2018-02-20T05:29:36.718Z,30.10
2018-02-20T05:32:04.295Z,29.00
2018-02-20T05:34:32.652Z,28.67
2018-02-20T05:37:00.228Z,27.47
2018-02-20T05:39:27.838Z,30.00
2018-02-20T05:41:55.401Z,29.40
2018-02-20T05:44:22.998Z,30.43
2018-02-20T05:46:51.416Z,28.50
2018-02-20T05:49:19.017Z,31.63
2018-02-20T05:51:46.584Z,29.17
2018-02-20T05:54:14.174Z,30.70
2018-02-20T05:56:42.550Z,29.10
2018-02-20T05:59:10.116Z,30.60
2018-02-20T06:01:37.689Z,31.83
2018-02-20T06:04:05.290Z,31.80
2018-02-20T06:06:32.865Z,28.50
2018-02-20T06:09:02.083Z,29.90
2018-02-20T06:11:29.661Z,30.30
2018-02-20T06:13:57.255Z,30.07
2018-02-20T06:16:24.826Z,30.77
2018-02-20T06:18:52.986Z,31.33
2018-02-20T06:21:20.545Z,32.70
2018-02-20T06:23:48.108Z,30.83
2018-02-20T06:26:15.706Z,30.70
2018-02-20T06:28:43.274Z,29.50
2018-02-20T06:31:10.858Z,31.53
2018-02-20T06:33:38.426Z,31.47
2018-02-20T06:36:06.013Z,32.17
2018-02-20T06:38:33.580Z,29.27
2018-02-20T06:41:01.174Z,32.10
2018-02-20T06:43:28.737Z,29.57
2018-02-20T06:45:56.334Z,31.70
2018-02-20T06:48:23.910Z,38.60
2018-02-20T06:50:51.507Z,37.43
2018-02-20T06:53:19.069Z,33.80
2018-02-20T06:55:47.420Z,32.73
2018-02-20T06:58:15.029Z,31.20
2018-02-20T07:00:42.608Z,30.87
2018-02-20T07:03:10.177Z,32.40
2018-02-20T07:05:37.778Z,32.10
2018-02-20T07:08:05.363Z,31.70
2018-02-20T07:10:32.953Z,28.80
2018-02-20T07:13:00.530Z,32.60
2018-02-20T07:15:28.122Z,31.70
2018-02-20T07:17:55.695Z,29.47
2018-02-20T07:20:24.525Z,33.23
2018-02-20T07:22:52.084Z,30.47
2018-02-20T07:25:19.677Z,31.93
2018-02-20T07:27:47.254Z,30.97
2018-02-20T07:30:14.845Z,33.80
2018-02-20T07:32:42.417Z,30.53
2018-02-20T07:35:10.011Z,32.67
2018-02-20T07:37:38.357Z,28.87
2018-02-20T07:40:05.951Z,31.53
2018-02-20T07:42:33.517Z,30.13
2018-02-20T07:45:01.121Z,30.80
2018-02-20T07:47:29.460Z,31.93
2018-02-20T07:49:57.041Z,31.53
2018-02-20T07:52:24.618Z,34.63
2018-02-20T07:54:52.210Z,30.63
2018-02-20T07:57:19.820Z,30.73
2018-02-20T07:59:47.397Z,32.50
2018-02-20T08:02:15.754Z,32.27
2018-02-20T08:04:43.330Z,34.20
2018-02-20T08:07:10.925Z,35.40
2018-02-20T08:09:38.504Z,34.10
2018-02-20T08:12:06.100Z,31.43
2018-02-20T08:14:33.673Z,33.93
2018-02-20T08:17:01.265Z,31.13
2018-02-20T08:19:29.598Z,29.53
2018-02-20T08:21:57.205Z,31.47
2018-02-20T08:24:25.552Z,33.23
2018-02-20T08:26:53.145Z,34.23
2018-02-20T08:29:20.725Z,30.93
2018-02-20T08:31:48.313Z,26.00
2018-02-20T08:34:15.886Z,26.33
2018-02-20T08:36:43.472Z,26.87
2018-02-20T08:39:11.042Z,28.40
2018-02-20T08:41:38.742Z,25.97
2018-02-20T08:44:06.737Z,28.77
2018-02-20T08:46:34.388Z,30.43
2018-02-20T08:49:01.957Z,23.57
2018-02-20T08:51:29.562Z,23.93
2018-02-20T08:53:57.130Z,23.50
2018-02-20T08:56:24.712Z,21.47
2018-02-20T08:58:52.278Z,21.07
2018-02-20T09:01:19.914Z,19.30
2018-02-20T09:03:47.483Z,21.30
2018-02-20T09:06:15.073Z,21.80
2018-02-20T09:08:42.673Z,19.20
2018-02-20T09:11:10.266Z,18.23
2018-02-20T09:13:37.858Z,17.87
2018-02-20T09:16:05.440Z,17.80
2018-02-20T09:18:33.766Z,16.10
2018-02-20T09:21:01.370Z,15.67
2018-02-20T09:23:28.946Z,17.60
2018-02-20T09:25:56.555Z,15.30
2018-02-20T09:28:24.130Z,16.37
2018-02-20T09:30:51.725Z,17.13
2018-02-20T09:33:20.058Z,20.33
2018-02-20T09:35:47.649Z,15.80
2018-02-20T09:38:15.213Z,14.37
2018-02-20T09:40:42.777Z,13.27
2018-02-20T09:43:11.137Z,14.53
2018-02-20T09:45:38.729Z,11.60
2018-02-20T09:48:06.309Z,12.17
2018-02-20T09:50:33.877Z,12.47
2018-02-20T09:53:01.478Z,13.50
2018-02-20T09:55:29.268Z,13.13
2018-02-20T09:57:56.861Z,13.67
2018-02-20T10:00:24.424Z,12.70
2018-02-20T10:02:52.017Z,13.43
2018-02-20T10:05:20.354Z,13.13
2018-02-20T10:07:47.951Z,12.20
2018-02-20T10:10:15.522Z,12.23
2018-02-20T10:12:43.118Z,12.70
2018-02-20T10:15:10.693Z,12.90
2018-02-20T10:17:38.285Z,13.40
2018-02-20T10:20:05.847Z,12.90
2018-02-20T10:22:33.437Z,12.33
2018-02-20T10:25:01.253Z,14.70
2018-02-20T10:27:28.848Z,12.77
2018-02-20T10:29:56.422Z,15.37
2018-02-20T10:32:24.013Z,13.57
2018-02-20T10:34:51.586Z,12.00
2018-02-20T10:37:19.177Z,13.13
2018-02-20T10:39:47.520Z,12.70
2018-02-20T10:42:15.105Z,12.30
2018-02-20T10:44:42.673Z,14.20
2018-02-20T10:47:11.041Z,13.77
2018-02-20T10:49:38.609Z,11.63
2018-02-20T10:52:06.968Z,15.23
2018-02-20T10:54:34.543Z,11.93
2018-02-20T10:57:02.135Z,12.77
2018-02-20T10:59:29.702Z,12.67
2018-02-20T11:01:57.285Z,14.03
2018-02-20T11:04:24.844Z,13.20
2018-02-20T11:06:52.441Z,14.97
2018-02-20T11:09:20.005Z,15.17
2018-02-20T11:11:48.398Z,13.50
2018-02-20T11:14:15.989Z,15.93
2018-02-20T11:16:44.390Z,15.40
2018-02-20T11:19:11.818Z,13.40
2018-02-20T11:21:39.382Z,13.10
2018-02-20T11:24:06.982Z,13.50
2018-02-20T11:26:35.317Z,16.43
2018-02-20T11:29:02.909Z,14.27
2018-02-20T11:31:30.476Z,12.23
2018-02-20T11:33:58.065Z,17.27
2018-02-20T11:36:25.628Z,21.10
2018-02-20T11:38:53.236Z,24.70
2018-02-20T11:41:21.736Z,23.87
2018-02-20T11:43:50.133Z,24.30
2018-02-20T11:46:17.674Z,23.97
2018-02-20T11:48:45.269Z,22.43
2018-02-20T11:51:12.838Z,22.73
2018-02-20T11:53:40.779Z,25.37
2018-02-20T11:56:08.349Z,24.80
2018-02-20T11:58:36.004Z,25.47
2018-02-20T12:01:03.575Z,25.13
2018-02-20T12:03:31.174Z,25.07
2018-02-20T12:06:00.924Z,24.60
2018-02-20T12:08:28.506Z,24.03
2018-02-20T12:10:56.086Z,26.90
2018-02-20T12:13:23.694Z,25.53
2018-02-20T12:15:51.263Z,23.47
2018-02-20T12:18:18.867Z,24.40
2018-02-20T12:20:47.206Z,23.73
2018-02-20T12:23:14.798Z,26.43
2018-02-20T12:25:42.390Z,26.63
2018-02-20T12:28:09.992Z,24.03
2018-02-20T12:30:37.567Z,23.20
2018-02-20T12:33:05.245Z,24.83
2018-02-20T12:35:32.817Z,22.93
2018-02-20T12:38:00.702Z,24.17
2018-02-20T12:40:28.306Z,26.20
2018-02-20T12:42:55.910Z,24.53
2018-02-20T12:45:23.477Z,21.97
2018-02-20T12:47:51.851Z,21.93
2018-02-20T12:50:19.412Z,24.60
2018-02-20T12:52:47.013Z,21.43
2018-02-20T12:55:14.577Z,22.00
2018-02-20T12:57:42.144Z,20.20
2018-02-20T13:00:09.733Z,19.13
2018-02-20T13:02:37.303Z,19.50
2018-02-20T13:05:04.910Z,19.03
2018-02-20T13:07:32.490Z,19.00
2018-02-20T13:10:00.101Z,17.87
2018-02-20T13:12:27.684Z,19.50
2018-02-20T13:14:55.277Z,18.50
2018-02-20T13:17:22.851Z,17.57
2018-02-20T13:19:50.433Z,18.67
2018-02-20T13:22:18.767Z,17.60
2018-02-20T13:24:46.370Z,17.43
2018-02-20T13:27:13.937Z,17.67
2018-02-20T13:29:41.543Z,16.80
2018-02-20T13:32:09.119Z,18.80
2018-02-20T13:34:36.709Z,17.53
2018-02-20T13:37:05.049Z,16.53
2018-02-20T13:39:32.641Z,16.60
2018-02-20T13:42:00.211Z,16.37
2018-02-20T13:44:28.567Z,16.63
2018-02-20T13:46:56.142Z,17.37
2018-02-20T13:49:23.737Z,19.30
2018-02-20T13:51:51.309Z,18.60
2018-02-20T13:54:18.911Z,16.80
2018-02-20T13:56:46.481Z,16.50
2018-02-20T13:59:14.841Z,16.30
2018-02-20T14:01:42.404Z,18.67
2018-02-20T14:04:10.756Z,18.23
2018-02-20T14:06:38.331Z,17.33
2018-02-20T14:09:05.935Z,17.30
2018-02-20T14:11:33.498Z,18.80
2018-02-20T14:14:01.094Z,18.60
2018-02-20T14:16:28.664Z,18.60
2018-02-20T14:18:56.251Z,19.50
2018-02-20T14:21:24.580Z,18.80
2018-02-20T14:23:52.939Z,18.43
2018-02-20T14:26:20.514Z,20.30
2018-02-20T14:28:48.112Z,17.03
2018-02-20T14:31:15.690Z,17.47
2018-02-20T14:33:43.261Z,17.90
2018-02-20T14:36:10.849Z,17.10
2018-02-20T14:38:38.418Z,16.77
2018-02-20T14:41:06.013Z,17.33
2018-02-20T14:43:33.576Z,18.40
2018-02-20T14:46:01.930Z,17.60
2018-02-20T14:48:29.500Z,15.07
2018-02-20T14:50:57.875Z,15.47
2018-02-20T14:53:26.205Z,15.17
2018-02-20T14:55:53.798Z,13.97
2018-02-20T14:58:21.371Z,14.83
2018-02-20T15:00:48.962Z,18.73
2018-02-20T15:03:16.525Z,16.20
2018-02-20T15:05:44.206Z,15.60
2018-02-20T15:08:11.785Z,15.80
2018-02-20T15:10:39.374Z,16.40
2018-02-20T15:13:07.710Z,15.07
2018-02-20T15:15:35.306Z,16.83
2018-02-20T15:18:03.641Z,16.00
2018-02-20T15:20:31.902Z,15.57
2018-02-20T15:22:59.480Z,15.43
2018-02-20T15:25:27.087Z,14.33
2018-02-20T15:27:54.663Z,16.93
2018-02-20T15:30:22.254Z,16.27
2018-02-20T15:32:49.819Z,16.13
2018-02-20T15:35:17.412Z,17.27
2018-02-20T15:37:45.742Z,15.37
2018-02-20T15:40:13.333Z,16.43
2018-02-20T15:42:40.907Z,15.80
2018-02-20T15:45:09.272Z,16.70
2018-02-20T15:47:37.685Z,16.93
2018-02-20T15:50:05.270Z,16.37
2018-02-20T15:52:32.855Z,16.43
2018-02-20T15:55:00.464Z,15.20
2018-02-20T15:57:28.059Z,16.47
2018-02-20T15:59:55.651Z,17.17
2018-02-20T16:02:23.220Z,16.93
2018-02-20T16:04:50.824Z,17.20
2018-02-20T16:07:18.414Z,17.07
2018-02-20T16:09:46.362Z,16.97
2018-02-20T16:12:13.926Z,16.60
2018-02-20T16:14:41.897Z,16.80
2018-02-20T16:17:09.486Z,16.67
2018-02-20T16:19:37.066Z,20.20
2018-02-20T16:22:05.418Z,19.70
2018-02-20T16:24:33.757Z,19.40
2018-02-20T16:27:01.360Z,18.40
2018-02-20T16:29:29.079Z,19.77
2018-02-20T16:31:56.669Z,19.80
2018-02-20T16:34:24.264Z,20.40
2018-02-20T16:36:53.461Z,28.37
2018-02-20T16:39:21.033Z,20.27
2018-02-20T16:41:48.630Z,20.03
2018-02-20T16:44:16.205Z,20.80
2018-02-20T16:46:43.795Z,19.50
2018-02-20T16:49:11.668Z,16.97
2018-02-20T16:51:39.221Z,16.70
2018-02-20T16:54:08.391Z,19.83
2018-02-20T16:56:36.003Z,20.80
2018-02-20T16:59:03.588Z,18.90
2018-02-20T17:01:31.200Z,15.03
2018-02-20T17:03:58.776Z,17.27
2018-02-20T17:06:26.370Z,16.63
2018-02-20T17:08:53.945Z,20.47
2018-02-20T17:11:21.556Z,16.70
2018-02-20T17:13:49.136Z,16.57
2018-02-20T17:16:16.777Z,14.70
2018-02-20T17:18:44.396Z,12.70
2018-02-20T17:21:12.011Z,14.53
2018-02-20T17:23:39.585Z,13.80
2018-02-20T17:26:07.198Z,13.80
2018-02-20T17:28:34.766Z,12.83
2018-02-20T17:31:02.371Z,13.33
2018-02-20T17:33:29.948Z,15.60
2018-02-20T17:35:58.313Z,14.63
2018-02-20T17:38:25.886Z,16.47
2018-02-20T17:40:53.480Z,14.80
2018-02-20T17:43:21.054Z,14.53
2018-02-20T17:45:48.641Z,14.87
2018-02-20T17:48:16.223Z,14.80
2018-02-20T17:50:44.588Z,14.03
2018-02-20T17:53:13.045Z,15.50
2018-02-20T17:55:40.681Z,14.00
2018-02-20T17:58:08.276Z,15.60
2018-02-20T18:00:35.867Z,14.57
2018-02-20T18:03:03.623Z,15.10
2018-02-20T18:05:31.207Z,14.40
2018-02-20T18:07:59.299Z,15.87
2018-02-20T18:13:00.702Z,17.70
2018-02-20T18:15:28.278Z,24.10
2018-02-20T18:17:55.891Z,28.27
2018-02-20T18:20:23.459Z,30.23
2018-02-20T18:22:51.054Z,33.20
2018-02-20T18:25:19.483Z,28.27
2018-02-20T18:27:47.102Z,26.70
2018-02-20T18:30:14.678Z,26.80
2018-02-20T18:32:42.272Z,27.23
2018-02-20T18:35:09.866Z,30.70
2018-02-20T18:37:37.465Z,26.07
2018-02-20T18:40:05.063Z,23.20
2018-02-20T18:42:32.662Z,24.63
2018-02-20T18:45:00.229Z,28.10
2018-02-20T18:47:28.736Z,27.30
2018-02-20T18:49:56.302Z,26.77
2018-02-20T18:52:23.897Z,28.50
2018-02-20T18:54:51.478Z,26.57
2018-02-20T18:57:19.088Z,27.47
2018-02-20T18:59:46.649Z,28.13
2018-02-20T19:02:14.259Z,25.83
2018-02-20T19:04:42.598Z,27.30
2018-02-20T19:07:10.198Z,29.30
2018-02-20T19:09:38.534Z,30.97
2018-02-20T19:12:06.137Z,25.80
2018-02-20T19:14:34.479Z,27.20
2018-02-20T19:17:02.088Z,25.27
2018-02-20T19:19:29.701Z,27.57
2018-02-20T19:21:57.285Z,25.60
2018-02-20T19:24:24.857Z,26.07
2018-02-20T19:26:52.464Z,24.23
2018-02-20T19:29:20.633Z,24.90
2018-02-20T19:31:48.457Z,24.33
2018-02-20T19:34:16.022Z,23.60
2018-02-20T19:36:43.598Z,22.30
2018-02-20T19:39:11.215Z,25.83
2018-02-20T19:41:38.817Z,24.33
2018-02-20T19:44:06.490Z,31.40
2018-02-20T19:46:34.180Z,26.67
2018-02-20T19:49:02.228Z,25.43
2018-02-20T19:51:31.239Z,30.73
2018-02-20T19:53:58.889Z,37.20
2018-02-20T19:56:26.460Z,42.57
2018-02-20T19:58:54.071Z,33.13
2018-02-20T20:01:21.828Z,26.60
2018-02-20T20:03:49.425Z,25.17
2018-02-20T20:06:16.994Z,24.30
2018-02-20T20:08:47.217Z,27.37
2018-02-20T20:11:14.812Z,25.30
2018-02-20T20:13:42.536Z,25.73
2018-02-20T20:16:10.105Z,23.87
2018-02-20T20:18:39.065Z,24.70
2018-02-20T20:21:06.651Z,23.07
2018-02-20T20:23:34.240Z,26.90
2018-02-20T20:26:02.582Z,28.53
2018-02-20T20:28:30.178Z,29.73
2018-02-20T20:30:57.748Z,25.73
2018-02-20T20:33:25.349Z,26.63
2018-02-20T20:35:52.945Z,25.27
2018-02-20T20:38:20.549Z,28.07
2018-02-20T20:40:48.132Z,28.17
2018-02-20T20:43:15.755Z,26.10
2018-02-20T20:45:43.335Z,22.70
2018-02-20T20:48:10.925Z,26.90
2018-02-20T20:50:38.529Z,26.23
2018-02-20T20:53:06.138Z,24.70
2018-02-20T20:55:33.709Z,25.60
2018-02-20T20:58:01.305Z,28.73
2018-02-20T21:00:28.868Z,23.03
2018-02-20T21:02:56.457Z,24.43
2018-02-20T21:05:24.024Z,30.47
2018-02-20T21:07:51.609Z,29.93
2018-02-20T21:10:19.185Z,31.97
2018-02-20T21:12:47.557Z,29.87
2018-02-20T21:15:15.124Z,24.33
2018-02-20T21:17:43.506Z,26.67
2018-02-20T21:20:11.093Z,23.00
2018-02-20T21:22:39.273Z,24.30
2018-02-20T21:25:06.868Z,22.03
2018-02-20T21:27:34.444Z,23.87
2018-02-20T21:30:02.045Z,21.07
2018-02-20T21:32:29.621Z,23.40
2018-02-20T21:34:57.212Z,22.07
2018-02-20T21:37:24.810Z,22.47
2018-02-20T21:39:52.416Z,20.27
2018-02-20T21:42:20.014Z,18.50
2018-02-20T21:44:47.609Z,20.00
2018-02-20T21:47:15.184Z,18.07
2018-02-20T21:49:42.778Z,17.77
2018-02-20T21:52:10.344Z,21.30
2018-02-20T21:54:38.701Z,19.30
2018-02-20T21:57:06.277Z,19.27
2018-02-20T21:59:33.878Z,18.17
2018-02-20T22:02:01.453Z,20.30
2018-02-20T22:04:29.054Z,22.60
2018-02-20T22:06:56.631Z,18.33
2018-02-20T22:09:24.226Z,19.03
2018-02-20T22:11:51.840Z,22.27
2018-02-20T22:14:20.185Z,21.70
2018-02-20T22:16:47.771Z,21.07
2018-02-20T22:19:16.138Z,22.00
2018-02-20T22:21:44.148Z,21.10
2018-02-20T22:24:11.745Z,19.33
2018-02-20T22:26:39.341Z,22.57
2018-02-20T22:29:07.703Z,23.60
2018-02-20T22:31:36.032Z,22.83
2018-02-20T22:34:03.625Z,22.30
2018-02-20T22:36:31.232Z,25.90
2018-02-20T22:38:58.832Z,23.90
2018-02-20T22:41:26.422Z,24.73
2018-02-20T22:43:54.012Z,25.87
2018-02-20T22:46:21.599Z,23.40
2018-02-20T22:48:49.198Z,23.80
2018-02-20T22:51:17.534Z,20.97
2018-02-20T22:53:45.133Z,27.10
2018-02-20T22:56:12.703Z,23.77
2018-02-20T22:58:40.302Z,25.90
2018-02-20T23:01:07.906Z,24.90
2018-02-20T23:03:35.473Z,26.10
2018-02-20T23:06:03.836Z,21.90
2018-02-20T23:08:31.405Z,23.37
2018-02-20T23:10:59.002Z,25.20
2018-02-20T23:13:26.565Z,23.60
2018-02-20T23:15:54.167Z,25.57
2018-02-20T23:18:21.736Z,24.33
2018-02-20T23:20:49.365Z,29.30
2018-02-20T23:23:16.941Z,24.03
2018-02-20T23:25:44.525Z,23.37
2018-02-20T23:28:12.869Z,27.73
2018-02-20T23:30:40.469Z,28.73
2018-02-20T23:33:08.040Z,30.20
2018-02-20T23:35:35.638Z,27.17
2018-02-20T23:38:03.970Z,29.70
2018-02-20T23:40:31.573Z,25.13
2018-02-20T23:42:59.145Z,24.63
2018-02-20T23:45:26.739Z,28.40
2018-02-20T23:47:54.304Z,25.63
2018-02-20T23:50:22.663Z,26.40
2018-02-20T23:52:51.000Z,24.70
2018-02-20T23:55:18.639Z,27.17
2018-02-20T23:57:46.210Z,27.90
